Time;durP1;ratioP1;P1;durP2;ratioP2;P2;SDS_P1;SDS_P2;PMS_P1;PMS_P2;Temp;Humidity;BMP_temperature;BMP_pressure;BME280_temperature;BME280_humidity;BME280_pressure;Samples;Min_cycle;Max_cycle;Signal;HPM_P1;HPM_P2
2021/12/13 00:02:26;;;;;;;9.47;3.33;;;6.80;96.10;;;;;;5097160;28;20027;-83
2021/12/13 00:05:04;;;;;;;8.47;3.33;;;6.80;96.00;;;;;;5096965;28;20031;-83
2021/12/13 00:07:34;;;;;;;5.87;3.13;;;6.80;96.00;;;;;;5096628;28;20082;-83
2021/12/13 00:10:08;;;;;;;4.87;3.00;;;6.80;95.90;;;;;;5096521;28;20023;-84
2021/12/13 00:12:40;;;;;;;12.97;3.03;;;6.80;96.10;;;;;;5096262;28;20500;-83
2021/12/13 00:15:10;;;;;;;;;;;6.80;96.00;;;;;;5097618;28;20032;-83
2021/12/13 00:17:46;;;;;;;4.97;2.80;;;6.80;96.00;;;;;;5096178;28;20263;-83
2021/12/13 00:20:27;;;;;;;5.77;2.73;;;6.80;96.10;;;;;;5097034;28;20024;-83
2021/12/13 00:22:54;;;;;;;6.20;2.80;;;6.80;95.90;;;;;;5096474;28;20020;-83
2021/12/13 00:25:25;;;;;;;7.50;3.10;;;6.80;96.00;;;;;;5096520;28;20101;-83
2021/12/13 00:28:04;;;;;;;6.17;2.97;;;6.80;95.80;;;;;;5114883;28;20020;-82
2021/12/13 00:30:34;;;;;;;9.10;3.20;;;6.80;95.90;;;;;;5096137;28;20107;-83
2021/12/13 00:33:19;;;;;;;6.30;2.77;;;6.80;96.00;;;;;;5096523;28;20102;-83
2021/12/13 00:35:52;;;;;;;6.07;2.80;;;6.80;96.10;;;;;;5096404;28;20027;-84
2021/12/13 00:38:25;;;;;;;5.00;3.03;;;6.80;96.10;;;;;;5096580;28;20109;-83
2021/12/13 00:41:15;;;;;;;7.70;2.90;;;6.80;96.10;;;;;;5096472;28;20036;-83
2021/12/13 00:43:51;;;;;;;6.07;3.27;;;6.80;96.10;;;;;;5095732;28;20119;-84
2021/12/13 00:46:17;;;;;;;10.43;3.43;;;6.80;96.20;;;;;;5096465;28;20019;-83
2021/12/13 00:48:48;;;;;;;6.97;3.73;;;6.80;96.20;;;;;;5096116;28;20024;-83
2021/12/13 00:51:21;;;;;;;7.70;2.90;;;6.80;96.40;;;;;;5096039;28;20134;-83
2021/12/13 00:53:49;;;;;;;5.77;3.40;;;6.80;96.50;;;;;;5114001;28;20024;-83
2021/12/13 00:56:53;;;;;;;6.70;3.13;;;6.80;96.60;;;;;;5113840;28;20011;-83
2021/12/13 00:59:27;;;;;;;6.53;3.40;;;6.80;96.50;;;;;;5114447;28;20024;-83
2021/12/13 01:02:19;;;;;;;8.53;3.20;;;6.80;96.50;;;;;;5096169;28;20024;-83
2021/12/13 01:05:12;;;;;;;4.47;3.07;;;6.80;96.60;;;;;;5094950;28;20016;-83
2021/12/13 01:07:59;;;;;;;9.67;3.60;;;6.80;96.70;;;;;;5113683;28;20068;-84
2021/12/13 01:10:40;;;;;;;4.83;3.13;;;6.80;96.60;;;;;;5113156;28;20122;-84
2021/12/13 01:13:19;;;;;;;6.73;2.70;;;6.80;96.70;;;;;;5092162;28;20140;-83
2021/12/13 01:16:10;;;;;;;7.90;3.70;;;6.80;96.70;;;;;;5092106;28;20046;-83
2021/12/13 01:22:12;;;;;;;8.73;3.13;;;6.80;96.40;;;;;;5069986;28;20032;-83
2021/12/13 01:27:36;;;;;;;7.67;3.30;;;6.70;96.60;;;;;;5093567;28;20024;-84
2021/12/13 01:30:04;;;;;;;6.93;3.17;;;6.70;96.70;;;;;;5091452;28;20217;-84
2021/12/13 01:32:41;;;;;;;6.40;3.13;;;6.70;96.80;;;;;;5092634;28;20113;-83
2021/12/13 01:35:11;;;;;;;6.90;3.20;;;6.80;96.80;;;;;;5092576;28;20028;-83
2021/12/13 01:37:37;;;;;;;8.33;3.17;;;6.70;96.80;;;;;;5091069;28;20028;-83
2021/12/13 01:40:11;;;;;;;6.53;3.03;;;6.70;96.80;;;;;;5092578;28;20039;-83
2021/12/13 01:42:37;;;;;;;8.27;3.10;;;6.70;96.70;;;;;;5091480;28;20031;-84
2021/12/13 01:45:14;;;;;;;6.40;3.37;;;6.70;96.90;;;;;;5092259;28;20032;-83
2021/12/13 01:47:47;;;;;;;7.17;3.60;;;6.70;97.00;;;;;;5091974;28;20024;-84
2021/12/13 01:50:21;;;;;;;7.37;3.70;;;6.60;97.30;;;;;;5091816;28;20024;-83
2021/12/13 01:52:49;;;;;;;7.43;4.00;;;6.60;97.60;;;;;;5091728;28;20059;-83
2021/12/13 01:55:39;;;;;;;7.53;3.90;;;6.60;97.50;;;;;;5092073;28;20436;-83
2021/12/13 01:58:41;;;;;;;6.63;3.90;;;6.60;97.60;;;;;;5092560;28;20031;-83
2021/12/13 02:01:14;;;;;;;8.53;3.93;;;6.50;97.80;;;;;;5092703;28;20039;-83
2021/12/13 02:03:55;;;;;;;6.20;3.57;;;6.60;98.00;;;;;;5092416;28;20107;-84
2021/12/13 02:06:23;;;;;;;6.00;3.50;;;6.60;98.20;;;;;;5091727;28;20070;-83
2021/12/13 02:08:54;;;;;;;8.67;4.07;;;6.50;98.30;;;;;;5092795;28;20027;-84
2021/12/13 02:11:22;;;;;;;7.32;4.07;;;6.50;98.30;;;;;;5092875;28;20051;-83
2021/12/13 02:14:05;;;;;;;6.87;3.53;;;6.50;98.40;;;;;;5091221;28;20063;-83
2021/12/13 02:19:47;;;;;;;8.70;3.20;;;6.50;98.50;;;;;;5097185;28;20098;-83
2021/12/13 02:22:33;;;;;;;7.23;3.87;;;6.50;98.60;;;;;;5081179;28;20028;-83
2021/12/13 02:25:08;;;;;;;6.00;3.70;;;6.50;98.40;;;;;;5095057;28;20028;-84
2021/12/13 02:27:37;;;;;;;7.13;4.03;;;6.60;98.40;;;;;;5096292;28;20400;-83
2021/12/13 02:30:11;;;;;;;6.73;3.40;;;6.50;98.40;;;;;;5095614;28;20119;-83
2021/12/13 02:32:41;;;;;;;6.43;3.90;;;6.50;98.50;;;;;;5095421;28;20067;-83
2021/12/13 02:35:09;;;;;;;9.07;3.70;;;6.60;98.50;;;;;;5095432;28;20057;-83
2021/12/13 02:37:35;;;;;;;7.43;3.63;;;6.50;98.30;;;;;;5094645;28;20475;-83
2021/12/13 02:40:02;;;;;;;7.73;3.90;;;6.50;98.30;;;;;;5095746;28;20024;-83
2021/12/13 02:42:30;;;;;;;7.90;3.87;;;6.60;98.40;;;;;;5094718;28;20032;-83
2021/12/13 02:45:04;;;;;;;9.23;4.23;;;6.60;98.40;;;;;;5096178;28;20027;-83
2021/12/13 02:47:37;;;;;;;7.77;3.50;;;6.60;98.50;;;;;;5094675;28;20127;-84
2021/12/13 02:50:37;;;;;;;7.37;3.50;;;6.60;98.50;;;;;;5096317;28;20464;-83
2021/12/13 02:53:03;;;;;;;6.30;3.87;;;6.60;98.50;;;;;;5095144;28;20483;-83
2021/12/13 02:55:30;;;;;;;6.83;3.50;;;6.50;98.50;;;;;;5095446;28;20034;-83
2021/12/13 02:58:00;;;;;;;7.40;3.10;;;6.50;98.40;;;;;;5094686;28;20020;-84
2021/12/13 03:00:37;;;;;;;7.03;3.37;;;6.50;98.50;;;;;;5096403;28;20454;-83
2021/12/13 03:03:08;;;;;;;5.80;3.50;;;6.50;98.30;;;;;;5094555;28;20119;-83
2021/12/13 03:05:38;;;;;;;7.13;3.50;;;6.50;98.20;;;;;;5094624;28;20016;-84
2021/12/13 03:08:13;;;;;;;6.77;3.67;;;6.50;98.20;;;;;;5096021;28;20016;-83
2021/12/13 03:10:46;;;;;;;4.97;3.03;;;6.50;98.10;;;;;;5095251;28;20024;-83
2021/12/13 03:13:12;;;;;;;5.60;3.33;;;6.50;98.20;;;;;;5106904;28;20040;-83
2021/12/13 03:15:38;;;;;;;8.60;3.87;;;6.50;98.20;;;;;;5115955;28;20364;-83
2021/12/13 03:18:17;;;;;;;7.50;3.13;;;6.60;98.40;;;;;;5115898;28;20047;-83
2021/12/13 03:21:01;;;;;;;5.93;3.20;;;6.60;98.30;;;;;;5097930;28;20027;-84
2021/12/13 03:23:51;;;;;;;6.00;3.40;;;6.50;98.30;;;;;;5097868;28;20049;-83
2021/12/13 03:26:42;;;;;;;7.23;3.50;;;6.60;98.50;;;;;;5096648;28;20114;-84
2021/12/13 03:29:42;;;;;;;9.80;3.75;;;6.60;98.50;;;;;;5098108;28;20482;-83
2021/12/13 03:32:12;;;;;;;7.80;3.80;;;6.60;98.50;;;;;;5101958;28;20059;-84
2021/12/13 03:34:42;;;;;;;6.93;3.33;;;6.60;98.50;;;;;;5097156;28;20042;-83
2021/12/13 03:37:14;;;;;;;7.50;3.77;;;6.60;98.60;;;;;;5097665;28;20448;-83
2021/12/13 03:39:44;;;;;;;10.67;3.97;;;6.60;98.40;;;;;;5097311;28;20073;-84
2021/12/13 03:42:23;;;;;;;11.07;4.27;;;6.60;98.40;;;;;;5097459;28;20045;-83
2021/12/13 03:44:52;;;;;;;7.70;3.70;;;6.50;98.40;;;;;;5114393;28;20036;-84
2021/12/13 03:47:30;;;;;;;6.47;3.70;;;6.50;98.60;;;;;;5097650;28;20020;-84
2021/12/13 03:49:58;;;;;;;6.23;3.30;;;6.50;98.70;;;;;;5115123;28;20023;-83
2021/12/13 03:52:30;;;;;;;8.90;3.60;;;6.50;99.00;;;;;;5097196;28;20090;-83
2021/12/13 03:54:59;;;;;;;10.05;3.97;;;6.50;99.30;;;;;;5096537;28;20027;-84
2021/12/13 03:57:26;;;;;;;6.70;3.47;;;6.50;99.40;;;;;;5096933;28;20110;-84
2021/12/13 03:59:53;;;;;;;7.17;3.83;;;6.50;99.40;;;;;;5114989;28;20035;-83
2021/12/13 04:02:26;;;;;;;10.07;4.60;;;6.60;99.50;;;;;;5097071;28;20066;-84
2021/12/13 04:04:57;;;;;;;8.23;3.90;;;6.50;99.50;;;;;;5114609;28;20016;-84
2021/12/13 04:07:30;;;;;;;6.63;4.00;;;6.50;99.60;;;;;;5097023;28;20024;-82
2021/12/13 04:09:59;;;;;;;7.13;3.80;;;6.50;99.60;;;;;;5096705;28;20406;-83
2021/12/13 04:12:34;;;;;;;8.07;3.63;;;6.60;99.70;;;;;;5114572;28;20047;-83
2021/12/13 04:15:13;;;;;;;7.90;3.70;;;6.50;99.70;;;;;;5114859;28;20040;-82
2021/12/13 04:20:32;;;;;;;8.10;3.87;;;6.50;99.40;;;;;;5115002;28;20034;-82
2021/12/13 04:23:04;;;;;;;6.87;3.30;;;6.50;99.30;;;;;;5096234;28;20110;-84
2021/12/13 04:25:37;;;;;;;9.05;3.80;;;6.50;99.30;;;;;;5096202;28;20106;-83
2021/12/13 04:28:15;;;;;;;7.83;3.80;;;6.50;99.30;;;;;;5096578;28;20034;-83
2021/12/13 04:30:48;;;;;;;6.77;3.90;;;6.50;99.40;;;;;;5114252;28;20107;-83
2021/12/13 04:33:40;;;;;;;7.30;3.70;;;6.50;99.40;;;;;;5096289;28;20038;-83
2021/12/13 04:36:15;;;;;;;10.13;4.30;;;6.50;99.40;;;;;;5096675;28;20024;-83
2021/12/13 04:38:55;;;;;;;7.37;3.37;;;6.50;99.50;;;;;;5113360;28;20023;-84
2021/12/13 04:41:24;;;;;;;7.03;3.70;;;6.50;99.50;;;;;;5096852;28;20023;-83
2021/12/13 04:44:00;;;;;;;7.67;3.57;;;6.50;99.40;;;;;;5095683;28;20097;-83
2021/12/13 04:46:28;;;;;;;7.23;4.07;;;6.50;99.60;;;;;;5096506;28;20023;-83
2021/12/13 04:48:57;;;;;;;7.97;4.40;;;6.50;99.80;;;;;;5114369;28;20028;-83
2021/12/13 04:51:28;;;;;;;10.43;4.70;;;6.40;99.90;;;;;;5096320;28;20054;-83
2021/12/13 04:53:58;;;;;;;9.13;4.47;;;6.40;99.90;;;;;;5095807;28;20513;-83
2021/12/13 04:56:28;;;;;;;10.17;4.60;;;6.40;99.90;;;;;;5096332;28;20016;-83
2021/12/13 04:58:57;;;;;;;11.43;4.60;;;6.40;99.90;;;;;;5113233;28;20064;-83
2021/12/13 05:01:24;;;;;;;9.93;4.67;;;6.40;99.90;;;;;;5096621;28;20047;-83
2021/12/13 05:03:57;;;;;;;9.63;4.83;;;6.40;99.90;;;;;;5095475;28;20027;-83
2021/12/13 05:06:28;;;;;;;10.27;4.40;;;6.40;99.90;;;;;;5095912;28;20031;-83
2021/12/13 05:08:58;;;;;;;10.07;4.33;;;6.40;99.90;;;;;;5113575;28;20452;-83
2021/12/13 05:11:38;;;;;;;11.17;5.17;;;6.30;99.90;;;;;;5113756;28;20103;-83
2021/12/13 05:14:05;;;;;;;9.93;4.43;;;6.40;99.90;;;;;;5095708;28;20043;-83
2021/12/13 05:16:47;;;;;;;8.47;5.10;;;6.40;99.90;;;;;;5095984;28;20024;-83
2021/12/13 05:19:24;;;;;;;10.35;4.90;;;6.40;99.90;;;;;;5095570;28;20024;-82
2021/12/13 05:21:51;;;;;;;10.73;4.77;;;6.30;99.90;;;;;;5097312;28;20035;-82
2021/12/13 05:24:31;;;;;;;10.27;4.80;;;6.30;99.90;;;;;;5113335;28;20026;-83
2021/12/13 05:27:04;;;;;;;10.83;5.03;;;6.20;99.90;;;;;;5112840;28;20050;-82
2021/12/13 05:29:29;;;;;;;9.93;4.60;;;6.20;99.90;;;;;;5113806;28;20030;-83
2021/12/13 05:32:01;;;;;;;10.30;4.50;;;6.10;99.90;;;;;;5112884;28;20023;-83
2021/12/13 05:34:40;;;;;;;8.13;4.35;;;6.10;99.90;;;;;;5095745;28;20031;-84
2021/12/13 05:37:08;;;;;;;10.43;5.07;;;6.10;99.90;;;;;;5113854;28;20043;-83
2021/12/13 05:39:37;;;;;;;9.70;4.53;;;6.10;99.90;;;;;;5095145;28;20023;-83
2021/12/13 05:42:07;;;;;;;9.03;4.17;;;6.00;99.90;;;;;;5095585;28;20071;-83
2021/12/13 05:44:37;;;;;;;7.83;4.53;;;6.00;99.90;;;;;;5095581;28;20076;-83
2021/12/13 05:47:08;;;;;;;8.00;3.93;;;6.00;99.90;;;;;;5094999;28;20115;-82
2021/12/13 05:49:41;;;;;;;11.00;5.13;;;6.00;99.90;;;;;;5115026;28;20031;-83
2021/12/13 05:52:13;;;;;;;11.90;4.30;;;5.90;99.90;;;;;;5099593;28;20169;-83
2021/12/13 05:54:50;;;;;;;8.17;4.67;;;5.90;99.90;;;;;;5099509;28;20462;-83
2021/12/13 05:57:26;;;;;;;7.20;4.17;;;5.90;99.90;;;;;;5099904;28;20019;-83
2021/12/13 05:59:57;;;;;;;10.97;4.30;;;5.90;99.90;;;;;;5098751;28;20024;-83
2021/12/13 06:02:45;;;;;;;7.40;3.90;;;5.90;99.90;;;;;;5099932;28;20054;-83
2021/12/13 06:05:22;;;;;;;10.40;4.20;;;5.90;99.90;;;;;;5099329;28;20505;-83
2021/12/13 06:07:57;;;;;;;10.73;4.60;;;5.90;99.90;;;;;;5116597;28;20055;-83
2021/12/13 06:10:29;;;;;;;6.87;4.17;;;5.90;99.90;;;;;;5099255;28;20039;-83
2021/12/13 06:13:01;;;;;;;6.13;4.00;;;6.00;99.90;;;;;;5098352;28;20054;-83
2021/12/13 06:15:32;;;;;;;8.32;4.20;;;6.10;99.90;;;;;;5099268;28;20024;-83
2021/12/13 06:18:04;;;;;;;7.47;3.97;;;6.00;99.90;;;;;;5098691;28;20023;-83
2021/12/13 06:20:34;;;;;;;9.75;5.05;;;6.00;99.90;;;;;;5099258;28;20028;-83
2021/12/13 06:23:14;;;;;;;12.00;4.40;;;6.00;99.90;;;;;;5116721;28;20102;-83
2021/12/13 06:25:42;;;;;;;11.90;4.33;;;6.10;99.90;;;;;;5098677;28;20087;-83
2021/12/13 06:28:27;;;;;;;8.93;4.00;;;6.10;99.90;;;;;;5098701;28;20405;-83
2021/12/13 06:31:04;;;;;;;11.40;4.23;;;6.10;99.90;;;;;;5098587;28;20456;-84
2021/12/13 06:33:52;;;;;;;8.40;4.67;;;6.00;99.90;;;;;;5117036;28;20039;-83
2021/12/13 06:36:35;;;;;;;10.73;4.47;;;6.00;99.90;;;;;;5099126;28;20023;-83
2021/12/13 06:39:05;;;;;;;12.10;4.37;;;6.10;99.90;;;;;;5098116;28;20030;-83
2021/12/13 06:41:36;;;;;;;9.93;4.73;;;6.10;99.90;;;;;;5099001;28;20028;-83
2021/12/13 06:44:25;;;;;;;8.20;4.72;;;6.10;99.90;;;;;;5098265;28;20313;-83
2021/12/13 06:47:00;;;;;;;10.60;4.20;;;6.10;99.90;;;;;;5116141;28;20026;-83
2021/12/13 06:49:28;;;;;;;8.23;4.70;;;6.10;99.90;;;;;;5116637;28;20119;-83
2021/12/13 06:52:03;;;;;;;6.93;4.23;;;6.10;99.90;;;;;;5097859;28;20347;-83
2021/12/13 06:54:29;;;;;;;10.30;4.93;;;6.10;99.90;;;;;;5098623;28;20055;-83
2021/12/13 06:56:57;;;;;;;12.43;5.23;;;6.20;99.90;;;;;;5097850;28;20027;-83
2021/12/13 06:59:25;;;;;;;12.40;5.30;;;6.20;99.90;;;;;;5097917;28;20068;-83
2021/12/13 07:02:02;;;;;;;9.87;5.30;;;6.20;99.90;;;;;;5097164;28;20055;-83
2021/12/13 07:04:59;;;;;;;8.30;4.90;;;6.20;99.90;;;;;;5098621;28;20367;-83
2021/12/13 07:07:49;;;;;;;11.90;5.37;;;6.20;99.90;;;;;;5085064;28;20064;-83
2021/12/13 07:10:29;;;;;;;9.37;5.20;;;6.20;99.90;;;;;;5116605;28;20040;-83
2021/12/13 07:12:58;;;;;;;14.47;5.30;;;6.20;99.90;;;;;;5097083;28;20077;-84
2021/12/13 07:15:28;;;;;;;10.47;5.60;;;6.10;99.90;;;;;;5098106;28;20076;-83
2021/12/13 07:18:12;;;;;;;9.93;5.10;;;6.10;99.90;;;;;;5097604;28;20020;-83
2021/12/13 07:20:46;;;;;;;13.50;5.37;;;6.10;99.90;;;;;;5115982;28;20110;-83
2021/12/13 07:23:12;;;;;;;10.10;5.17;;;6.10;99.90;;;;;;5098413;28;20585;-83
2021/12/13 07:25:41;;;;;;;12.40;5.43;;;6.10;99.90;;;;;;5115860;28;20051;-83
2021/12/13 07:28:08;;;;;;;9.17;5.53;;;6.10;99.90;;;;;;5097273;28;20031;-83
2021/12/13 07:30:37;;;;;;;9.93;5.30;;;6.20;99.90;;;;;;5098030;28;20115;-83
2021/12/13 07:33:11;;;;;;;14.10;6.77;;;6.30;99.90;;;;;;5115160;28;20062;-83
2021/12/13 07:35:48;;;;;;;13.20;6.03;;;6.20;99.90;;;;;;5097733;28;20049;-83
2021/12/13 07:38:17;;;;;;;13.97;6.20;;;6.30;99.90;;;;;;5097703;28;20023;-83
2021/12/13 07:40:50;;;;;;;17.40;7.80;;;6.30;99.90;;;;;;5115248;28;20057;-83
2021/12/13 07:43:27;;;;;;;16.07;7.47;;;6.30;99.90;;;;;;5097882;28;20027;-83
2021/12/13 07:45:59;;;;;;;12.63;6.60;;;6.30;99.90;;;;;;5115074;28;20168;-83
2021/12/13 07:48:41;;;;;;;17.90;6.20;;;6.40;99.90;;;;;;5097498;28;20031;-84
2021/12/13 07:51:28;;;;;;;13.37;6.90;;;6.40;99.90;;;;;;5097404;28;20031;-83
2021/12/13 07:54:06;;;;;;;15.27;6.90;;;6.40;99.90;;;;;;5096919;28;20024;-83
2021/12/13 07:56:31;;;;;;;15.40;7.13;;;6.50;99.90;;;;;;5115249;28;20022;-83
2021/12/13 07:59:10;;;;;;;13.50;6.93;;;6.40;99.90;;;;;;5114892;28;20233;-83
2021/12/13 08:02:08;;;;;;;15.73;7.20;;;6.50;99.90;;;;;;5097370;28;20205;-83
2021/12/13 08:04:45;;;;;;;15.73;7.13;;;6.40;99.90;;;;;;5058639;28;20126;-83
2021/12/13 08:07:26;;;;;;;14.80;7.40;;;6.40;99.90;;;;;;5114651;28;20444;-83
2021/12/13 08:10:07;;;;;;;17.53;7.80;;;6.40;99.90;;;;;;5096650;28;20028;-83
2021/12/13 08:12:43;;;;;;;15.00;7.30;;;6.40;99.90;;;;;;5095905;28;20075;-84
2021/12/13 08:15:15;;;;;;;13.93;7.63;;;6.40;99.90;;;;;;5096442;28;20294;-83
2021/12/13 08:17:45;;;;;;;17.80;8.48;;;6.50;99.90;;;;;;5097449;28;20024;-83
2021/12/13 08:20:24;;;;;;;15.73;8.37;;;6.50;99.90;;;;;;5095932;28;20020;-83
2021/12/13 08:22:50;;;;;;;16.43;8.07;;;6.50;99.90;;;;;;5096767;28;20075;-83
2021/12/13 08:25:21;;;;;;;16.13;8.40;;;6.50;99.90;;;;;;5096701;28;20056;-83
2021/12/13 08:27:54;;;;;;;16.60;8.20;;;6.50;99.90;;;;;;5114471;28;20022;-83
2021/12/13 08:30:42;;;;;;;16.87;8.27;;;6.50;99.90;;;;;;5096727;28;20416;-83
2021/12/13 08:33:18;;;;;;;16.07;7.80;;;6.60;99.90;;;;;;5095883;28;20023;-83
2021/12/13 08:35:53;;;;;;;17.70;8.30;;;6.60;99.90;;;;;;5096629;28;20191;-83
2021/12/13 08:38:42;;;;;;;18.60;7.20;;;6.60;99.90;;;;;;5096945;28;20027;-84
2021/12/13 08:41:23;;;;;;;15.90;8.10;;;6.60;99.90;;;;;;5080623;28;20039;-83
2021/12/13 08:43:58;;;;;;;17.53;8.63;;;6.60;99.90;;;;;;5096481;28;20367;-83
2021/12/13 08:46:42;;;;;;;17.40;8.63;;;6.60;99.90;;;;;;5096239;28;20023;-84
2021/12/13 08:49:27;;;;;;;19.20;8.70;;;6.70;99.90;;;;;;5095408;28;20114;-84
2021/12/13 08:52:04;;;;;;;19.47;8.60;;;6.70;99.90;;;;;;5095999;28;20463;-83
2021/12/13 08:54:53;;;;;;;23.10;9.23;;;6.70;99.90;;;;;;5095997;28;20030;-84
2021/12/13 08:57:46;;;;;;;18.93;8.97;;;6.70;99.90;;;;;;5055805;28;20043;-83
2021/12/13 09:00:12;;;;;;;13.50;7.90;;;6.80;99.90;;;;;;5075319;28;20084;-83
2021/12/13 09:02:41;;;;;;;18.30;8.53;;;6.80;99.90;;;;;;5076082;28;20122;-82
2021/12/13 09:05:18;;;;;;;20.57;7.83;;;6.80;99.90;;;;;;5075208;28;20031;-83
2021/12/13 09:07:55;;;;;;;15.27;8.07;;;6.80;99.90;;;;;;5093625;28;20016;-83
2021/12/13 09:10:33;;;;;;;15.33;7.80;;;6.90;99.90;;;;;;5093280;28;20028;-83
2021/12/13 09:12:59;;;;;;;18.03;8.50;;;6.90;99.90;;;;;;5074284;28;20358;-84
2021/12/13 09:15:31;;;;;;;19.10;8.50;;;6.90;99.90;;;;;;5075427;28;20031;-84
2021/12/13 09:17:58;;;;;;;17.95;7.97;;;6.90;99.90;;;;;;5074818;28;20028;-84
2021/12/13 09:20:38;;;;;;;18.33;7.83;;;6.90;99.90;;;;;;5075271;28;20032;-83
2021/12/13 09:23:17;;;;;;;13.80;7.17;;;7.00;99.90;;;;;;5086514;28;20023;-84
2021/12/13 09:26:14;;;;;;;16.83;8.13;;;7.00;99.90;;;;;;5095067;28;20475;-83
2021/12/13 09:28:43;;;;;;;17.07;8.60;;;7.00;99.90;;;;;;5082413;28;20023;-83
2021/12/13 09:31:20;;;;;;;16.83;8.43;;;7.00;99.90;;;;;;5095076;28;20043;-83
2021/12/13 09:33:55;;;;;;;17.57;7.80;;;7.00;99.90;;;;;;5113502;28;20016;-83
2021/12/13 09:36:31;;;;;;;18.77;8.47;;;7.10;99.90;;;;;;5095498;28;20023;-84
2021/12/13 09:39:03;;;;;;;15.70;7.30;;;7.10;99.90;;;;;;5094543;28;20068;-83
2021/12/13 09:41:46;;;;;;;13.25;6.72;;;7.20;99.90;;;;;;5094908;28;20027;-83
2021/12/13 09:44:12;;;;;;;16.03;6.57;;;7.30;99.90;;;;;;5113586;28;20104;-83
2021/12/13 09:46:56;;;;;;;16.30;6.87;;;7.30;99.90;;;;;;5113603;28;20020;-83
2021/12/13 09:49:45;;;;;;;12.93;6.33;;;7.30;99.90;;;;;;5095325;28;20028;-83
2021/12/13 09:52:24;;;;;;;18.00;7.17;;;7.40;99.90;;;;;;5113436;28;20027;-84
2021/12/13 09:54:59;;;;;;;15.10;6.93;;;7.40;99.90;;;;;;5112646;28;20024;-84
2021/12/13 09:57:38;;;;;;;14.10;6.60;;;7.40;99.90;;;;;;5094867;28;20031;-84
2021/12/13 10:00:17;;;;;;;10.97;5.60;;;7.50;99.90;;;;;;5112443;28;20088;-84
2021/12/13 10:02:47;;;;;;;12.27;5.30;;;7.50;99.90;;;;;;5113878;28;20023;-84
2021/12/13 10:05:20;;;;;;;14.15;5.97;;;7.50;99.90;;;;;;5112831;28;20023;-83
2021/12/13 10:07:54;;;;;;;15.23;6.18;;;7.50;99.90;;;;;;5094767;28;20038;-83
2021/12/13 10:10:27;;;;;;;16.67;8.32;;;7.60;99.90;;;;;;5095168;28;20024;-84
2021/12/13 10:12:57;;;;;;;15.20;6.10;;;7.60;99.90;;;;;;5113019;28;20456;-84
2021/12/13 10:15:31;;;;;;;11.70;5.50;;;7.70;99.90;;;;;;5094158;28;20027;-83
2021/12/13 10:18:02;;;;;;;10.80;5.25;;;7.70;99.90;;;;;;5113179;28;20400;-84
2021/12/13 10:20:44;;;;;;;10.52;5.78;;;7.80;99.90;;;;;;5110641;28;20051;-84
2021/12/13 10:23:15;;;;;;;12.23;5.03;;;7.80;99.90;;;;;;5094608;28;20019;-84
2021/12/13 10:25:47;;;;;;;17.33;5.05;;;7.80;99.90;;;;;;5094546;28;20028;-83
2021/12/13 10:28:20;;;;;;;20.70;8.40;;;7.80;99.90;;;;;;5112344;28;20020;-83
2021/12/13 10:31:04;;;;;;;13.63;5.97;;;7.90;99.90;;;;;;5095081;28;20047;-84
2021/12/13 10:33:32;;;;;;;10.20;5.38;;;7.90;99.90;;;;;;5112864;28;20016;-84
2021/12/13 10:36:01;;;;;;;12.80;6.07;;;7.90;99.90;;;;;;5095967;28;20035;-84
2021/12/13 10:38:45;;;;;;;11.02;5.40;;;7.90;99.90;;;;;;5098505;28;20024;-84
2021/12/13 10:41:18;;;;;;;10.38;5.05;;;7.90;99.90;;;;;;5097342;28;20039;-84
2021/12/13 10:43:49;;;;;;;10.00;5.00;;;7.90;99.90;;;;;;5098849;28;20020;-84
2021/12/13 10:46:20;;;;;;;9.90;4.90;;;7.80;99.90;;;;;;5098209;28;20455;-83
2021/12/13 10:48:51;;;;;;;12.30;5.45;;;7.80;99.90;;;;;;5098233;28;20020;-83
2021/12/13 10:51:25;;;;;;;13.50;6.18;;;7.80;99.90;;;;;;5098141;28;20035;-83
2021/12/13 10:53:52;;;;;;;10.68;5.80;;;7.90;99.90;;;;;;5098590;28;20024;-84
2021/12/13 10:56:29;;;;;;;11.30;5.18;;;7.80;99.90;;;;;;5115447;28;20098;-84
2021/12/13 10:58:58;;;;;;;9.93;4.95;;;7.90;99.90;;;;;;5098171;28;20479;-84
2021/12/13 11:01:30;;;;;;;7.50;4.60;;;7.90;99.90;;;;;;5098135;28;20127;-84
2021/12/13 11:03:58;;;;;;;10.73;4.80;;;7.90;99.90;;;;;;5098640;28;20076;-84
2021/12/13 11:06:24;;;;;;;9.52;4.93;;;7.90;99.90;;;;;;5098458;28;20031;-84
2021/12/13 11:08:51;;;;;;;12.38;5.03;;;7.90;99.90;;;;;;5097673;28;20110;-83
2021/12/13 11:11:44;;;;;;;8.63;4.40;;;8.00;99.90;;;;;;5115890;28;20207;-84
2021/12/13 11:14:13;;;;;;;8.00;4.20;;;8.00;99.90;;;;;;5115015;28;20051;-84
2021/12/13 11:16:44;;;;;;;9.93;4.63;;;8.10;99.90;;;;;;5115895;28;20023;-84
2021/12/13 11:19:18;;;;;;;12.10;5.40;;;8.20;99.90;;;;;;5097214;28;20100;-84
2021/12/13 11:21:49;;;;;;;9.15;5.10;;;8.30;99.90;;;;;;5115707;28;20020;-84
2021/12/13 11:24:20;;;;;;;9.98;4.65;;;8.40;99.90;;;;;;5077212;28;20023;-83
2021/12/13 11:26:48;;;;;;;12.95;4.95;;;8.40;99.90;;;;;;5095492;28;20118;-83
2021/12/13 11:29:15;;;;;;;8.45;4.53;;;8.40;99.90;;;;;;5114674;28;20098;-83
2021/12/13 11:31:53;;;;;;;11.68;5.50;;;8.40;99.90;;;;;;5098753;28;20022;-82
2021/12/13 11:34:44;;;;;;;10.32;4.63;;;8.40;99.90;;;;;;5099805;28;20272;-83
2021/12/13 11:37:52;;;;;;;10.13;4.50;;;8.50;99.90;;;;;;5095783;28;20114;-83
2021/12/13 11:40:27;;;;;;;7.80;3.72;;;8.60;99.90;;;;;;5079391;28;20027;-84
2021/12/13 11:43:17;;;;;;;7.68;4.75;;;8.60;99.90;;;;;;5096965;28;20023;-84
2021/12/13 11:46:04;;;;;;;7.78;3.97;;;8.70;99.90;;;;;;5097564;28;20027;-84
2021/12/13 11:48:44;;;;;;;8.98;4.60;;;8.70;99.90;;;;;;5114538;28;20016;-83
2021/12/13 11:51:28;;;;;;;9.77;4.97;;;8.80;99.90;;;;;;5095748;28;20027;-84
2021/12/13 11:54:06;;;;;;;9.13;4.85;;;8.80;99.90;;;;;;5115228;28;20030;-84
2021/12/13 11:56:59;;;;;;;12.45;4.93;;;8.90;99.90;;;;;;5115004;28;20011;-83
2021/12/13 11:59:56;;;;;;;12.35;4.95;;;9.00;99.90;;;;;;5096860;28;20031;-84
2021/12/13 12:02:49;;;;;;;8.88;4.47;;;9.10;99.90;;;;;;5096470;28;20024;-83
2021/12/13 12:05:36;;;;;;;10.05;4.50;;;9.20;99.90;;;;;;5114075;28;20361;-83
2021/12/13 12:08:01;;;;;;;9.75;5.07;;;9.20;99.90;;;;;;5114653;28;20118;-84
2021/12/13 12:11:04;;;;;;;9.35;5.05;;;9.30;99.90;;;;;;5114836;28;20467;-85
2021/12/13 12:13:36;;;;;;;;;;;9.30;99.90;;;;;;5092751;28;20115;-85
2021/12/13 12:16:04;;;;;;;12.52;4.88;;;9.30;99.90;;;;;;5093807;28;19957;-84
2021/12/13 12:18:34;;;;;;;11.48;5.47;;;9.20;99.90;;;;;;5093212;28;20031;-84
2021/12/13 12:21:34;;;;;;;13.52;5.43;;;9.20;99.90;;;;;;5092333;28;20019;-84
2021/12/13 12:24:13;;;;;;;9.90;5.22;;;9.30;99.90;;;;;;5093591;28;20074;-84
2021/12/13 12:26:40;;;;;;;10.48;5.43;;;9.30;99.90;;;;;;5092281;28;20352;-83
2021/12/13 12:29:12;;;;;;;10.07;5.57;;;9.30;99.90;;;;;;5092813;28;20024;-83
2021/12/13 12:31:42;;;;;;;9.63;5.28;;;9.40;99.90;;;;;;5093076;28;20020;-84
2021/12/13 12:34:12;;;;;;;12.60;6.30;;;9.40;99.90;;;;;;5092633;28;20066;-84
2021/12/13 12:36:56;;;;;;;10.40;5.70;;;9.40;99.90;;;;;;5092752;28;20051;-84
2021/12/13 12:39:40;;;;;;;10.75;5.07;;;9.40;99.90;;;;;;5093787;28;20292;-84
2021/12/13 12:42:20;;;;;;;9.57;5.63;;;9.40;99.90;;;;;;5093594;28;20020;-84
2021/12/13 12:45:04;;;;;;;10.85;5.25;;;9.40;99.90;;;;;;5093156;28;20032;-84
2021/12/13 12:47:55;;;;;;;12.80;6.47;;;9.40;99.90;;;;;;5092711;28;20020;-84
2021/12/13 12:50:30;;;;;;;11.07;5.35;;;9.30;99.90;;;;;;5092195;28;20106;-84
2021/12/13 12:53:03;;;;;;;10.00;5.25;;;9.40;99.90;;;;;;5092738;28;20051;-84
2021/12/13 12:55:34;;;;;;;12.52;5.30;;;9.40;99.90;;;;;;5093052;28;20104;-84
2021/12/13 12:58:07;;;;;;;10.55;6.05;;;9.30;99.90;;;;;;5093117;28;20019;-83
2021/12/13 13:00:33;;;;;;;10.70;6.00;;;9.40;99.90;;;;;;5092420;28;20023;-82
2021/12/13 13:02:59;;;;;;;14.02;5.85;;;9.40;99.90;;;;;;5093163;28;20345;-84
2021/12/13 13:05:29;;;;;;;10.48;5.90;;;9.40;99.90;;;;;;5093329;28;20070;-84
2021/12/13 13:07:54;;;;;;;7.35;4.40;;;9.40;99.90;;;;;;5090209;28;20110;-83
2021/12/13 13:10:25;;;;;;;15.00;4.88;;;9.50;99.90;;;;;;5092147;28;20440;-84
2021/12/13 13:12:57;;;;;;;8.73;4.50;;;9.40;99.90;;;;;;5092244;28;20070;-83
2021/12/13 13:15:25;;;;;;;10.98;4.50;;;9.50;99.90;;;;;;5091595;28;20028;-84
2021/12/13 13:17:59;;;;;;;11.85;5.57;;;9.60;99.90;;;;;;5091896;28;20020;-84
2021/12/13 13:20:47;;;;;;;9.70;4.80;;;9.60;99.90;;;;;;5092307;28;20378;-84
2021/12/13 13:23:14;;;;;;;10.65;4.72;;;9.60;99.90;;;;;;5091729;28;20051;-84
2021/12/13 13:25:56;;;;;;;9.27;4.97;;;9.60;99.90;;;;;;5092407;28;20378;-83
2021/12/13 13:28:37;;;;;;;7.25;3.72;;;9.60;99.90;;;;;;5092791;28;20073;-83
2021/12/13 13:31:32;;;;;;;8.20;3.63;;;9.60;99.90;;;;;;5092737;28;20032;-83
2021/12/13 13:34:04;;;;;;;7.72;3.67;;;9.60;99.90;;;;;;5093132;28;20020;-84
2021/12/13 13:36:47;;;;;;;6.90;3.88;;;9.70;99.90;;;;;;5091426;28;20026;-84
2021/12/13 13:39:16;;;;;;;9.80;3.10;;;9.70;99.90;;;;;;5091732;28;20023;-84
2021/12/13 13:41:44;;;;;;;5.43;2.75;;;9.70;99.90;;;;;;5092959;28;20032;-84
2021/12/13 13:44:15;;;;;;;7.65;2.90;;;9.60;99.90;;;;;;5091714;28;20035;-84
2021/12/13 13:46:41;;;;;;;5.00;2.58;;;9.70;99.90;;;;;;5092368;28;20115;-83
2021/12/13 13:49:07;;;;;;;7.07;3.00;;;9.60;99.90;;;;;;5091470;28;20024;-84